Time,TemperatureF,DewpointF,PressureIn,WindDirection,WindDirectionDegrees,WindSpeedMPH,WindSpeedGustMPH,Humidity,HourlyPrecipIn,Conditions,Clouds,dailyrainin,SolarRadiationWatts/m^2,SoftwareType,DateUTC
2013-04-23 00:02:00,65.0,52.0,-100.00,South,182,4.0,10.0,62,0.00,,,0.00,0.000000,,2013-04-23 05:02:00,
2013-04-23 00:22:00,63.0,55.0,-100.00,SSE,164,3.0,9.0,75,0.00,,,0.00,0.000000,,2013-04-23 05:22:00,
2013-04-23 00:32:00,63.0,55.0,-100.00,SSE,164,3.0,9.0,75,0.00,,,0.00,0.000000,,2013-04-23 05:32:00,
2013-04-23 00:42:00,63.0,55.0,-100.00,SSE,164,3.0,9.0,75,0.00,,,0.00,0.000000,,2013-04-23 05:42:00,
2013-04-23 00:52:00,63.0,55.0,-100.00,SSE,164,3.0,9.0,75,0.00,,,0.00,0.000000,,2013-04-23 05:52:00,
2013-04-23 01:01:00,63.0,55.0,-100.00,SSE,164,3.0,9.0,75,0.00,,,0.00,0.000000,,2013-04-23 06:01:00,
2013-04-23 01:22:00,60.0,55.0,-100.00,South,170,2.0,7.0,84,0.00,,,0.00,0.000000,,2013-04-23 06:22:00,
2013-04-23 01:33:00,60.0,55.0,-100.00,South,170,2.0,7.0,84,0.00,,,0.00,0.000000,,2013-04-23 06:33:00,
2013-04-23 01:42:00,60.0,55.0,-100.00,South,170,2.0,7.0,84,0.00,,,0.00,0.000000,,2013-04-23 06:42:00,
2013-04-23 01:52:00,60.0,55.0,-100.00,South,170,2.0,7.0,84,0.00,,,0.00,0.000000,,2013-04-23 06:52:00,
2013-04-23 02:02:00,60.0,55.0,-100.00,South,170,2.0,7.0,84,0.00,,,0.00,0.000000,,2013-04-23 07:02:00,
2013-04-23 02:22:00,58.0,56.0,-100.00,SE,135,0.0,3.0,92,0.00,,,0.00,0.000000,,2013-04-23 07:22:00,
2013-04-23 02:32:00,58.0,56.0,-100.00,SE,135,0.0,3.0,92,0.00,,,0.00,0.000000,,2013-04-23 07:32:00,
2013-04-23 02:42:00,58.0,56.0,-100.00,SE,135,0.0,3.0,92,0.00,,,0.00,0.000000,,2013-04-23 07:42:00,
2013-04-23 02:52:00,58.0,56.0,-100.00,SE,135,0.0,3.0,92,0.00,,,0.00,0.000000,,2013-04-23 07:52:00,
2013-04-23 03:02:00,58.0,56.0,-100.00,SE,135,0.0,3.0,92,0.00,,,0.00,0.000000,,2013-04-23 08:02:00,
2013-04-23 03:32:00,56.0,55.0,-100.00,ESE,115,3.0,4.0,95,0.00,,,0.00,0.000000,,2013-04-23 08:32:00,
2013-04-23 03:42:00,56.0,55.0,-100.00,ESE,115,3.0,4.0,95,0.00,,,0.00,0.000000,,2013-04-23 08:42:00,
2013-04-23 03:52:00,56.0,55.0,-100.00,ESE,115,3.0,4.0,95,0.00,,,0.00,0.000000,,2013-04-23 08:52:00,
2013-04-23 04:01:00,56.0,55.0,-100.00,ESE,115,3.0,4.0,95,0.00,,,0.00,0.000000,,2013-04-23 09:01:00,
2013-04-23 04:33:00,57.0,56.0,-100.00,SSE,151,2.0,4.0,97,0.00,,,0.00,0.000000,,2013-04-23 09:33:00,
2013-04-23 04:43:00,57.0,56.0,-100.00,SSE,151,2.0,4.0,97,0.00,,,0.00,0.000000,,2013-04-23 09:43:00,
2013-04-23 04:53:00,57.0,56.0,-100.00,SSE,151,2.0,4.0,97,0.00,,,0.00,0.000000,,2013-04-23 09:53:00,
2013-04-23 05:02:00,57.0,56.0,-100.00,SSE,151,2.0,4.0,97,0.00,,,0.00,0.000000,,2013-04-23 10:02:00,
2013-04-23 05:03:00,59.0,58.0,-100.00,SSE,166,5.0,12.0,97,0.00,,,0.00,0.000000,,2013-04-23 10:03:00,
2013-04-23 05:33:00,59.0,58.0,-100.00,SSE,166,5.0,12.0,97,0.00,,,0.00,0.000000,,2013-04-23 10:33:00,
2013-04-23 05:43:00,59.0,58.0,-100.00,SSE,166,5.0,12.0,97,0.00,,,0.00,0.000000,,2013-04-23 10:43:00,
2013-04-23 05:52:00,59.0,58.0,-100.00,SSE,166,5.0,12.0,97,0.00,,,0.00,0.000000,,2013-04-23 10:52:00,
2013-04-23 06:22:00,59.0,58.0,-100.00,South,169,5.0,10.0,97,0.00,,,0.00,0.000000,,2013-04-23 11:22:00,
2013-04-23 06:32:00,59.0,58.0,-100.00,South,169,5.0,10.0,97,0.00,,,0.00,0.000000,,2013-04-23 11:32:00,
2013-04-23 06:43:00,59.0,58.0,-100.00,South,169,5.0,10.0,97,0.00,,,0.00,0.000000,,2013-04-23 11:43:00,
2013-04-23 06:53:00,59.0,58.0,-100.00,South,169,5.0,10.0,97,0.00,,,0.00,0.000000,,2013-04-23 11:53:00,
2013-04-23 07:02:00,59.0,58.0,-100.00,South,169,5.0,10.0,97,0.00,,,0.00,0.000000,,2013-04-23 12:02:00,
2013-04-23 07:32:00,60.0,59.0,-100.00,South,181,4.0,10.0,97,0.00,,,0.00,2.000000,,2013-04-23 12:32:00,
2013-04-23 07:42:00,60.0,59.0,-100.00,South,181,4.0,10.0,97,0.00,,,0.00,2.000000,,2013-04-23 12:42:00,
2013-04-23 07:52:00,60.0,59.0,-100.00,South,181,4.0,10.0,97,0.00,,,0.00,2.000000,,2013-04-23 12:52:00,
2013-04-23 08:01:00,60.0,59.0,-100.00,South,181,4.0,10.0,97,0.00,,,0.00,2.000000,,2013-04-23 13:01:00,
2013-04-23 08:22:00,61.0,60.0,-100.00,SSE,153,5.0,10.0,97,0.00,,,0.00,38.000000,,2013-04-23 13:22:00,
2013-04-23 08:32:00,61.0,60.0,-100.00,SSE,153,5.0,10.0,97,0.00,,,0.00,38.000000,,2013-04-23 13:32:00,
2013-04-23 08:42:00,61.0,60.0,-100.00,SSE,153,5.0,10.0,97,0.00,,,0.00,38.000000,,2013-04-23 13:42:00,
2013-04-23 08:52:00,61.0,60.0,-100.00,SSE,153,5.0,10.0,97,0.00,,,0.00,38.000000,,2013-04-23 13:52:00,
2013-04-23 09:02:00,61.0,60.0,-100.00,SSE,153,5.0,10.0,97,0.00,,,0.00,38.000000,,2013-04-23 14:02:00,
2013-04-23 09:32:00,64.0,62.0,-100.00,South,178,4.0,9.0,92,0.00,,,0.00,136.000000,,2013-04-23 14:32:00,
2013-04-23 09:42:00,64.0,62.0,-100.00,South,178,4.0,9.0,92,0.00,,,0.00,136.000000,,2013-04-23 14:42:00,
2013-04-23 09:52:00,64.0,62.0,-100.00,South,178,4.0,9.0,92,0.00,,,0.00,136.000000,,2013-04-23 14:52:00,
2013-04-23 10:01:00,64.0,62.0,-100.00,South,178,4.0,9.0,92,0.00,,,0.00,136.000000,,2013-04-23 15:01:00,
2013-04-23 10:03:00,66.0,62.0,-100.00,NNW,335,4.0,9.0,86,0.00,,,0.00,143.000000,,2013-04-23 15:03:00,
2013-04-23 10:32:00,66.0,62.0,-100.00,NNW,335,4.0,9.0,86,0.00,,,0.00,143.000000,,2013-04-23 15:32:00,
2013-04-23 10:43:00,66.0,62.0,-100.00,NNW,335,4.0,9.0,86,0.00,,,0.00,143.000000,,2013-04-23 15:43:00,
2013-04-23 10:53:00,66.0,62.0,-100.00,NNW,335,4.0,9.0,86,0.00,,,0.00,143.000000,,2013-04-23 15:53:00,
2013-04-23 11:34:00,71.0,65.0,-100.00,North,349,3.0,5.0,81,0.00,,,0.00,335.000000,,2013-04-23 16:34:00,
2013-04-23 11:43:00,71.0,65.0,-100.00,North,349,3.0,5.0,81,0.00,,,0.00,335.000000,,2013-04-23 16:43:00,
2013-04-23 11:53:00,71.0,65.0,-100.00,North,349,3.0,5.0,81,0.00,,,0.00,335.000000,,2013-04-23 16:53:00,
2013-04-23 12:02:00,71.0,65.0,-100.00,North,349,3.0,5.0,81,0.00,,,0.00,335.000000,,2013-04-23 17:02:00,
2013-04-23 12:33:00,74.0,64.0,-100.00,SW,220,6.0,12.0,70,0.00,,,0.00,458.000000,,2013-04-23 17:33:00,
2013-04-23 12:43:00,74.0,64.0,-100.00,SW,220,6.0,12.0,70,0.00,,,0.00,458.000000,,2013-04-23 17:43:00,
2013-04-23 12:53:00,74.0,64.0,-100.00,SW,220,6.0,12.0,70,0.00,,,0.00,458.000000,,2013-04-23 17:53:00,
2013-04-23 13:02:00,74.0,64.0,-100.00,SW,220,6.0,12.0,70,0.00,,,0.00,458.000000,,2013-04-23 18:02:00,
2013-04-23 13:22:00,78.0,63.0,-100.00,SSE,158,5.0,12.0,60,0.00,,,0.00,717.000000,,2013-04-23 18:22:00,
2013-04-23 13:32:00,78.0,63.0,-100.00,SSE,158,5.0,12.0,60,0.00,,,0.00,717.000000,,2013-04-23 18:32:00,
2013-04-23 13:42:00,78.0,63.0,-100.00,SSE,158,5.0,12.0,60,0.00,,,0.00,717.000000,,2013-04-23 18:42:00,
2013-04-23 13:52:00,78.0,63.0,-100.00,SSE,158,5.0,12.0,60,0.00,,,0.00,717.000000,,2013-04-23 18:52:00,
2013-04-23 14:02:00,78.0,63.0,-100.00,SSE,158,5.0,12.0,60,0.00,,,0.00,717.000000,,2013-04-23 19:02:00,
2013-04-23 14:22:00,80.0,64.0,-100.00,SSW,209,6.0,15.0,58,0.00,,,0.00,866.000000,,2013-04-23 19:22:00,
2013-04-23 14:32:00,80.0,64.0,-100.00,SSW,209,6.0,15.0,58,0.00,,,0.00,866.000000,,2013-04-23 19:32:00,
2013-04-23 14:42:00,80.0,64.0,-100.00,SSW,209,6.0,15.0,58,0.00,,,0.00,866.000000,,2013-04-23 19:42:00,
2013-04-23 14:52:00,80.0,64.0,-100.00,SSW,209,6.0,15.0,58,0.00,,,0.00,866.000000,,2013-04-23 19:52:00,
2013-04-23 15:01:00,80.0,64.0,-100.00,SSW,209,6.0,15.0,58,0.00,,,0.00,866.000000,,2013-04-23 20:01:00,
2013-04-23 15:32:00,81.0,62.0,-100.00,SSW,198,5.0,11.0,53,0.00,,,0.00,696.000000,,2013-04-23 20:32:00,
2013-04-23 15:42:00,81.0,62.0,-100.00,SSW,198,5.0,11.0,53,0.00,,,0.00,696.000000,,2013-04-23 20:42:00,
2013-04-23 15:52:00,81.0,62.0,-100.00,SSW,198,5.0,11.0,53,0.00,,,0.00,696.000000,,2013-04-23 20:52:00,
2013-04-23 16:02:00,81.0,62.0,-100.00,SSW,198,5.0,11.0,53,0.00,,,0.00,696.000000,,2013-04-23 21:02:00,
2013-04-23 16:03:00,81.0,61.0,-100.00,SSE,166,5.0,13.0,50,0.00,,,-99.99,553.000000,,2013-04-23 21:03:00,
2013-04-23 16:33:00,81.0,61.0,-100.00,SSE,166,5.0,13.0,50,0.00,,,-99.99,553.000000,,2013-04-23 21:33:00,
2013-04-23 16:43:00,81.0,61.0,-100.00,SSE,166,5.0,13.0,50,0.00,,,-99.99,553.000000,,2013-04-23 21:43:00,
2013-04-23 16:52:00,81.0,61.0,-100.00,SSE,166,5.0,13.0,50,0.00,,,-99.99,553.000000,,2013-04-23 21:52:00,
2013-04-23 17:03:00,80.0,61.0,-100.00,South,173,5.0,14.0,52,0.00,,,0.00,404.000000,,2013-04-23 22:03:00,
2013-04-23 17:23:00,80.0,61.0,-100.00,South,173,5.0,14.0,52,0.00,,,0.00,404.000000,,2013-04-23 22:23:00,
2013-04-23 17:33:00,80.0,61.0,-100.00,South,173,5.0,14.0,52,0.00,,,0.00,404.000000,,2013-04-23 22:33:00,
2013-04-23 17:42:00,80.0,61.0,-100.00,South,173,5.0,14.0,52,0.00,,,0.00,404.000000,,2013-04-23 22:42:00,
2013-04-23 17:52:00,80.0,61.0,-100.00,South,173,5.0,14.0,52,0.00,,,0.00,404.000000,,2013-04-23 22:52:00,
2013-04-23 18:22:00,80.0,63.0,-100.00,South,178,5.0,10.0,56,0.00,,,0.00,286.000000,,2013-04-23 23:22:00,
2013-04-23 18:32:00,80.0,63.0,-100.00,South,178,5.0,10.0,56,0.00,,,0.00,286.000000,,2013-04-23 23:32:00,
2013-04-23 18:42:00,80.0,63.0,-100.00,South,178,5.0,10.0,56,0.00,,,0.00,286.000000,,2013-04-23 23:42:00,
2013-04-23 18:52:00,80.0,63.0,-100.00,South,178,5.0,10.0,56,0.00,,,0.00,286.000000,,2013-04-23 23:52:00,
2013-04-23 19:01:00,80.0,63.0,-100.00,South,178,5.0,10.0,56,0.00,,,0.00,286.000000,,2013-04-24 00:01:00,
2013-04-23 19:22:00,77.0,63.0,-100.00,SSE,152,5.0,11.0,62,0.00,,,0.00,148.000000,,2013-04-24 00:22:00,
2013-04-23 19:32:00,77.0,63.0,-100.00,SSE,152,5.0,11.0,62,0.00,,,0.00,148.000000,,2013-04-24 00:32:00,
2013-04-23 19:42:00,77.0,63.0,-100.00,SSE,152,5.0,11.0,62,0.00,,,0.00,148.000000,,2013-04-24 00:42:00,
2013-04-23 19:52:00,77.0,63.0,-100.00,SSE,152,5.0,11.0,62,0.00,,,0.00,148.000000,,2013-04-24 00:52:00,
2013-04-23 20:01:00,77.0,63.0,-100.00,SSE,152,5.0,11.0,62,0.00,,,0.00,148.000000,,2013-04-24 01:01:00,
2013-04-23 20:21:00,74.0,64.0,-100.00,SSE,156,3.0,8.0,71,0.00,,,0.00,19.000000,,2013-04-24 01:21:00,
2013-04-23 20:32:00,74.0,64.0,-100.00,SSE,156,3.0,8.0,71,0.00,,,0.00,19.000000,,2013-04-24 01:32:00,
2013-04-23 20:43:00,74.0,64.0,-100.00,SSE,156,3.0,8.0,71,0.00,,,0.00,19.000000,,2013-04-24 01:43:00,
2013-04-23 20:52:00,74.0,64.0,-100.00,SSE,156,3.0,8.0,71,0.00,,,0.00,19.000000,,2013-04-24 01:52:00,
2013-04-23 21:02:00,74.0,64.0,-100.00,SSE,156,3.0,8.0,71,0.00,,,0.00,19.000000,,2013-04-24 02:02:00,
2013-04-23 21:03:00,72.0,64.0,-100.00,South,181,2.0,5.0,77,0.00,,,0.00,0.000000,,2013-04-24 02:03:00,
2013-04-23 21:42:00,72.0,64.0,-100.00,South,181,2.0,5.0,77,0.00,,,0.00,0.000000,,2013-04-24 02:42:00,
2013-04-23 21:50:00,72.0,64.0,-100.00,South,181,2.0,5.0,77,0.00,,,0.00,0.000000,,2013-04-24 02:50:00,
2013-04-23 22:00:00,72.0,64.0,-100.00,South,181,2.0,5.0,77,0.00,,,0.00,0.000000,,2013-04-24 03:00:00,
2013-04-23 22:03:00,66.0,57.0,-100.00,NNW,327,9.0,14.0,74,0.00,,,0.00,0.000000,,2013-04-24 03:03:00,
2013-04-23 22:53:00,66.0,57.0,-100.00,NNW,327,9.0,14.0,74,0.00,,,0.00,0.000000,,2013-04-24 03:53:00,
2013-04-23 23:01:00,66.0,57.0,-100.00,NNW,327,9.0,14.0,74,0.00,,,0.00,0.000000,,2013-04-24 04:01:00,
2013-04-23 23:33:00,63.0,55.0,-100.00,NW,323,8.0,13.0,75,0.00,,,0.00,0.000000,,2013-04-24 04:33:00,
2013-04-23 23:43:00,63.0,55.0,-100.00,NW,323,8.0,13.0,75,0.00,,,0.00,0.000000,,2013-04-24 04:43:00,
2013-04-23 23:53:00,63.0,55.0,-100.00,NW,323,8.0,13.0,75,0.00,,,0.00,0.000000,,2013-04-24 04:53:00,